sensor_id;sensor_type;location;lat;lon;timestamp;temperature;humidity
65972;SHT31;52726;48.852;9.152;2023-05-07T00:02:20;12.72;83.78
65972;SHT31;52726;48.852;9.152;2023-05-07T00:04:46;12.70;83.56
65972;SHT31;52726;48.852;9.152;2023-05-07T00:07:11;12.72;83.58
65972;SHT31;52726;48.852;9.152;2023-05-07T00:09:36;12.67;83.69
65972;SHT31;52726;48.852;9.152;2023-05-07T00:12:02;12.64;83.94
65972;SHT31;52726;48.852;9.152;2023-05-07T00:14:27;12.62;83.66
65972;SHT31;52726;48.852;9.152;2023-05-07T00:16:52;12.57;84.15
65972;SHT31;52726;48.852;9.152;2023-05-07T00:19:18;12.57;84.06
65972;SHT31;52726;48.852;9.152;2023-05-07T00:21:43;12.64;83.52
65972;SHT31;52726;48.852;9.152;2023-05-07T00:24:09;12.62;83.32
65972;SHT31;52726;48.852;9.152;2023-05-07T00:26:34;12.64;83.40
65972;SHT31;52726;48.852;9.152;2023-05-07T00:29:00;12.64;83.45
65972;SHT31;52726;48.852;9.152;2023-05-07T00:31:25;12.66;83.27
65972;SHT31;52726;48.852;9.152;2023-05-07T00:33:50;12.64;83.38
65972;SHT31;52726;48.852;9.152;2023-05-07T00:36:16;12.63;83.29
65972;SHT31;52726;48.852;9.152;2023-05-07T00:38:41;12.62;83.65
65972;SHT31;52726;48.852;9.152;2023-05-07T00:41:06;12.57;84.07
65972;SHT31;52726;48.852;9.152;2023-05-07T00:43:32;12.49;83.89
65972;SHT31;52726;48.852;9.152;2023-05-07T00:45:57;12.41;84.42
65972;SHT31;52726;48.852;9.152;2023-05-07T00:48:23;12.32;84.89
65972;SHT31;52726;48.852;9.152;2023-05-07T00:50:49;12.28;84.62
65972;SHT31;52726;48.852;9.152;2023-05-07T00:53:14;12.29;84.61
65972;SHT31;52726;48.852;9.152;2023-05-07T00:55:40;12.24;84.76
65972;SHT31;52726;48.852;9.152;2023-05-07T00:58:06;12.21;85.03
65972;SHT31;52726;48.852;9.152;2023-05-07T01:00:31;12.17;85.71
65972;SHT31;52726;48.852;9.152;2023-05-07T01:02:57;12.14;85.81
65972;SHT31;52726;48.852;9.152;2023-05-07T01:05:23;12.11;85.49
65972;SHT31;52726;48.852;9.152;2023-05-07T01:07:51;12.14;85.61
65972;SHT31;52726;48.852;9.152;2023-05-07T01:10:18;12.05;85.75
65972;SHT31;52726;48.852;9.152;2023-05-07T01:12:44;12.06;85.40
65972;SHT31;52726;48.852;9.152;2023-05-07T01:15:11;12.08;85.91
65972;SHT31;52726;48.852;9.152;2023-05-07T01:17:38;12.06;85.21
65972;SHT31;52726;48.852;9.152;2023-05-07T01:20:05;12.06;85.19
65972;SHT31;52726;48.852;9.152;2023-05-07T01:22:33;12.10;85.61
65972;SHT31;52726;48.852;9.152;2023-05-07T01:24:59;12.05;86.12
65972;SHT31;52726;48.852;9.152;2023-05-07T01:27:26;11.99;86.28
65972;SHT31;52726;48.852;9.152;2023-05-07T01:29:51;11.93;86.15
65972;SHT31;52726;48.852;9.152;2023-05-07T01:32:19;11.91;85.85
65972;SHT31;52726;48.852;9.152;2023-05-07T01:34:48;11.94;85.91
65972;SHT31;52726;48.852;9.152;2023-05-07T01:37:14;11.94;86.25
65972;SHT31;52726;48.852;9.152;2023-05-07T01:39:40;11.97;86.05
65972;SHT31;52726;48.852;9.152;2023-05-07T01:42:05;11.95;85.98
65972;SHT31;52726;48.852;9.152;2023-05-07T01:44:31;12.02;86.09
65972;SHT31;52726;48.852;9.152;2023-05-07T01:46:56;12.04;85.79
65972;SHT31;52726;48.852;9.152;2023-05-07T01:49:22;12.05;85.76
65972;SHT31;52726;48.852;9.152;2023-05-07T01:51:48;12.05;85.99
65972;SHT31;52726;48.852;9.152;2023-05-07T01:54:13;12.06;86.34
65972;SHT31;52726;48.852;9.152;2023-05-07T01:56:39;12.08;86.23
65972;SHT31;52726;48.852;9.152;2023-05-07T01:59:05;12.10;86.59
65972;SHT31;52726;48.852;9.152;2023-05-07T02:01:30;12.10;86.67
65972;SHT31;52726;48.852;9.152;2023-05-07T02:03:55;12.06;86.51
65972;SHT31;52726;48.852;9.152;2023-05-07T02:06:21;12.02;86.64
65972;SHT31;52726;48.852;9.152;2023-05-07T02:08:47;11.97;86.85
65972;SHT31;52726;48.852;9.152;2023-05-07T02:11:12;11.94;87.12
65972;SHT31;52726;48.852;9.152;2023-05-07T02:13:37;11.97;86.97
65972;SHT31;52726;48.852;9.152;2023-05-07T02:16:03;12.01;86.99
65972;SHT31;52726;48.852;9.152;2023-05-07T02:18:29;12.02;87.18
65972;SHT31;52726;48.852;9.152;2023-05-07T02:20:54;12.01;87.23
65972;SHT31;52726;48.852;9.152;2023-05-07T02:23:19;12.01;87.38
65972;SHT31;52726;48.852;9.152;2023-05-07T02:25:45;12.02;87.04
65972;SHT31;52726;48.852;9.152;2023-05-07T02:28:11;12.01;87.21
65972;SHT31;52726;48.852;9.152;2023-05-07T02:30:38;11.99;86.75
65972;SHT31;52726;48.852;9.152;2023-05-07T02:33:04;11.98;86.44
65972;SHT31;52726;48.852;9.152;2023-05-07T02:35:29;11.95;86.24
65972;SHT31;52726;48.852;9.152;2023-05-07T02:37:55;11.93;86.66
65972;SHT31;52726;48.852;9.152;2023-05-07T02:40:20;11.87;86.82
65972;SHT31;52726;48.852;9.152;2023-05-07T02:42:45;11.83;86.88
65972;SHT31;52726;48.852;9.152;2023-05-07T02:45:11;11.84;87.11
65972;SHT31;52726;48.852;9.152;2023-05-07T02:47:36;11.81;86.54
65972;SHT31;52726;48.852;9.152;2023-05-07T02:50:02;11.78;87.63
65972;SHT31;52726;48.852;9.152;2023-05-07T02:52:27;11.69;87.60
65972;SHT31;52726;48.852;9.152;2023-05-07T02:54:53;11.63;87.22
65972;SHT31;52726;48.852;9.152;2023-05-07T02:57:18;11.62;87.40
65972;SHT31;52726;48.852;9.152;2023-05-07T02:59:43;11.55;87.04
65972;SHT31;52726;48.852;9.152;2023-05-07T03:02:09;11.55;86.90
65972;SHT31;52726;48.852;9.152;2023-05-07T03:04:34;11.53;86.93
65972;SHT31;52726;48.852;9.152;2023-05-07T03:07:00;11.52;87.06
65972;SHT31;52726;48.852;9.152;2023-05-07T03:09:25;11.43;88.11
65972;SHT31;52726;48.852;9.152;2023-05-07T03:11:51;11.36;88.37
65972;SHT31;52726;48.852;9.152;2023-05-07T03:14:16;11.30;88.67
65972;SHT31;52726;48.852;9.152;2023-05-07T03:16:42;11.23;88.65
65972;SHT31;52726;48.852;9.152;2023-05-07T03:19:07;11.19;88.47
65972;SHT31;52726;48.852;9.152;2023-05-07T03:21:32;11.19;88.44
65972;SHT31;52726;48.852;9.152;2023-05-07T03:23:59;11.18;88.38
65972;SHT31;52726;48.852;9.152;2023-05-07T03:26:24;11.11;88.58
65972;SHT31;52726;48.852;9.152;2023-05-07T03:28:50;11.09;88.11
65972;SHT31;52726;48.852;9.152;2023-05-07T03:31:16;11.04;87.95
65972;SHT31;52726;48.852;9.152;2023-05-07T03:33:55;11.02;88.45
65972;SHT31;52726;48.852;9.152;2023-05-07T03:36:21;10.98;88.55
65972;SHT31;52726;48.852;9.152;2023-05-07T03:38:47;10.92;88.82
65972;SHT31;52726;48.852;9.152;2023-05-07T03:41:13;10.90;88.61
65972;SHT31;52726;48.852;9.152;2023-05-07T03:43:38;10.91;88.16
65972;SHT31;52726;48.852;9.152;2023-05-07T03:46:04;10.90;88.27
65972;SHT31;52726;48.852;9.152;2023-05-07T03:48:29;10.87;87.98
65972;SHT31;52726;48.852;9.152;2023-05-07T03:50:56;10.88;88.25
65972;SHT31;52726;48.852;9.152;2023-05-07T03:53:21;10.85;88.80
65972;SHT31;52726;48.852;9.152;2023-05-07T03:55:47;10.81;89.22
65972;SHT31;52726;48.852;9.152;2023-05-07T03:58:12;10.80;89.41
65972;SHT31;52726;48.852;9.152;2023-05-07T04:00:37;10.74;89.54
65972;SHT31;52726;48.852;9.152;2023-05-07T04:03:04;10.72;89.92
65972;SHT31;52726;48.852;9.152;2023-05-07T04:05:30;10.68;89.89
65972;SHT31;52726;48.852;9.152;2023-05-07T04:07:55;10.68;90.01
65972;SHT31;52726;48.852;9.152;2023-05-07T04:10:21;10.70;89.91
65972;SHT31;52726;48.852;9.152;2023-05-07T04:12:46;10.70;90.39
65972;SHT31;52726;48.852;9.152;2023-05-07T04:15:11;10.70;90.61
65972;SHT31;52726;48.852;9.152;2023-05-07T04:17:37;10.71;89.86
65972;SHT31;52726;48.852;9.152;2023-05-07T04:20:02;10.74;90.34
65972;SHT31;52726;48.852;9.152;2023-05-07T04:22:28;10.71;90.22
65972;SHT31;52726;48.852;9.152;2023-05-07T04:24:53;10.74;90.72
65972;SHT31;52726;48.852;9.152;2023-05-07T04:27:18;10.77;90.57
65972;SHT31;52726;48.852;9.152;2023-05-07T04:29:44;10.78;90.29
65972;SHT31;52726;48.852;9.152;2023-05-07T04:32:12;10.81;90.74
65972;SHT31;52726;48.852;9.152;2023-05-07T04:34:38;10.87;90.12
65972;SHT31;52726;48.852;9.152;2023-05-07T04:37:03;10.94;90.00
65972;SHT31;52726;48.852;9.152;2023-05-07T04:39:29;10.99;89.83
65972;SHT31;52726;48.852;9.152;2023-05-07T04:41:54;11.07;89.45
65972;SHT31;52726;48.852;9.152;2023-05-07T04:44:19;11.16;89.53
65972;SHT31;52726;48.852;9.152;2023-05-07T04:46:45;11.23;89.62
65972;SHT31;52726;48.852;9.152;2023-05-07T04:49:10;11.28;89.78
65972;SHT31;52726;48.852;9.152;2023-05-07T04:51:36;11.30;89.68
65972;SHT31;52726;48.852;9.152;2023-05-07T04:54:03;11.30;89.57
65972;SHT31;52726;48.852;9.152;2023-05-07T04:56:29;11.33;89.60
65972;SHT31;52726;48.852;9.152;2023-05-07T04:58:55;11.33;89.58
65972;SHT31;52726;48.852;9.152;2023-05-07T05:01:21;11.35;89.51
65972;SHT31;52726;48.852;9.152;2023-05-07T05:03:46;11.39;89.68
65972;SHT31;52726;48.852;9.152;2023-05-07T05:06:11;11.46;89.38
65972;SHT31;52726;48.852;9.152;2023-05-07T05:08:36;11.55;88.95
65972;SHT31;52726;48.852;9.152;2023-05-07T05:11:02;11.57;88.60
65972;SHT31;52726;48.852;9.152;2023-05-07T05:13:27;11.62;88.23
65972;SHT31;52726;48.852;9.152;2023-05-07T05:15:53;11.66;87.98
65972;SHT31;52726;48.852;9.152;2023-05-07T05:18:18;11.69;87.76
65972;SHT31;52726;48.852;9.152;2023-05-07T05:20:43;11.71;87.60
65972;SHT31;52726;48.852;9.152;2023-05-07T05:23:09;11.80;87.36
65972;SHT31;52726;48.852;9.152;2023-05-07T05:25:34;11.88;87.46
65972;SHT31;52726;48.852;9.152;2023-05-07T05:27:59;11.98;87.37
65972;SHT31;52726;48.852;9.152;2023-05-07T05:30:25;12.11;86.82
65972;SHT31;52726;48.852;9.152;2023-05-07T05:32:50;12.25;86.31
65972;SHT31;52726;48.852;9.152;2023-05-07T05:35:15;12.35;86.61
65972;SHT31;52726;48.852;9.152;2023-05-07T05:37:41;12.49;86.06
65972;SHT31;52726;48.852;9.152;2023-05-07T05:40:07;12.66;85.98
65972;SHT31;52726;48.852;9.152;2023-05-07T05:42:32;12.86;84.94
65972;SHT31;52726;48.852;9.152;2023-05-07T05:44:57;13.08;83.87
65972;SHT31;52726;48.852;9.152;2023-05-07T05:47:23;13.28;83.42
65972;SHT31;52726;48.852;9.152;2023-05-07T05:49:48;13.44;82.57
65972;SHT31;52726;48.852;9.152;2023-05-07T05:52:13;13.55;82.07
65972;SHT31;52726;48.852;9.152;2023-05-07T05:54:39;13.66;81.31
65972;SHT31;52726;48.852;9.152;2023-05-07T05:57:05;13.84;80.61
65972;SHT31;52726;48.852;9.152;2023-05-07T05:59:31;14.06;80.03
65972;SHT31;52726;48.852;9.152;2023-05-07T06:01:56;14.24;79.52
65972;SHT31;52726;48.852;9.152;2023-05-07T06:04:21;14.49;79.87
65972;SHT31;52726;48.852;9.152;2023-05-07T06:06:47;14.75;78.57
65972;SHT31;52726;48.852;9.152;2023-05-07T06:09:12;14.85;76.72
65972;SHT31;52726;48.852;9.152;2023-05-07T06:11:37;15.06;75.30
65972;SHT31;52726;48.852;9.152;2023-05-07T06:14:03;15.27;75.36
65972;SHT31;52726;48.852;9.152;2023-05-07T06:16:28;15.33;74.30
65972;SHT31;52726;48.852;9.152;2023-05-07T06:18:53;15.43;74.32
65972;SHT31;52726;48.852;9.152;2023-05-07T06:21:19;15.54;73.27
65972;SHT31;52726;48.852;9.152;2023-05-07T06:23:44;15.64;73.08
65972;SHT31;52726;48.852;9.152;2023-05-07T06:26:10;15.77;73.53
65972;SHT31;52726;48.852;9.152;2023-05-07T06:28:35;15.92;71.98
65972;SHT31;52726;48.852;9.152;2023-05-07T06:31:17;16.17;70.10
65972;SHT31;52726;48.852;9.152;2023-05-07T06:33:44;16.47;68.88
65972;SHT31;52726;48.852;9.152;2023-05-07T06:36:09;17.22;67.62
65972;SHT31;52726;48.852;9.152;2023-05-07T06:38:35;17.55;66.37
65972;SHT31;52726;48.852;9.152;2023-05-07T06:41:01;17.84;66.02
65972;SHT31;52726;48.852;9.152;2023-05-07T06:43:26;18.47;64.97
65972;SHT31;52726;48.852;9.152;2023-05-07T06:45:51;19.08;63.53
65972;SHT31;52726;48.852;9.152;2023-05-07T06:48:17;19.39;62.04
65972;SHT31;52726;48.852;9.152;2023-05-07T06:50:42;19.97;59.74
65972;SHT31;52726;48.852;9.152;2023-05-07T06:53:08;20.13;59.43
65972;SHT31;52726;48.852;9.152;2023-05-07T06:55:34;20.24;59.15
65972;SHT31;52726;48.852;9.152;2023-05-07T06:57:59;20.27;58.75
65972;SHT31;52726;48.852;9.152;2023-05-07T07:00:26;20.66;59.79
65972;SHT31;52726;48.852;9.152;2023-05-07T07:02:53;20.90;56.47
65972;SHT31;52726;48.852;9.152;2023-05-07T07:05:18;21.17;57.74
65972;SHT31;52726;48.852;9.152;2023-05-07T07:07:44;21.62;57.66
65972;SHT31;52726;48.852;9.152;2023-05-07T07:10:09;21.51;56.75
65972;SHT31;52726;48.852;9.152;2023-05-07T07:12:34;21.41;57.75
65972;SHT31;52726;48.852;9.152;2023-05-07T07:15:00;21.71;57.20
65972;SHT31;52726;48.852;9.152;2023-05-07T07:17:25;22.17;56.67
65972;SHT31;52726;48.852;9.152;2023-05-07T07:19:50;22.10;56.08
65972;SHT31;52726;48.852;9.152;2023-05-07T07:22:16;22.20;54.58
65972;SHT31;52726;48.852;9.152;2023-05-07T07:24:41;21.74;55.10
65972;SHT31;52726;48.852;9.152;2023-05-07T07:27:07;21.51;57.85
65972;SHT31;52726;48.852;9.152;2023-05-07T07:29:32;21.72;57.01
65972;SHT31;52726;48.852;9.152;2023-05-07T07:31:57;21.96;56.06
65972;SHT31;52726;48.852;9.152;2023-05-07T07:34:23;22.14;56.25
65972;SHT31;52726;48.852;9.152;2023-05-07T07:36:48;22.23;54.91
65972;SHT31;52726;48.852;9.152;2023-05-07T07:39:13;22.44;54.71
65972;SHT31;52726;48.852;9.152;2023-05-07T07:41:39;22.14;54.60
65972;SHT31;52726;48.852;9.152;2023-05-07T07:44:04;21.72;56.43
65972;SHT31;52726;48.852;9.152;2023-05-07T07:46:32;21.52;57.19
65972;SHT31;52726;48.852;9.152;2023-05-07T07:48:58;21.54;57.78
65972;SHT31;52726;48.852;9.152;2023-05-07T07:51:24;21.63;57.74
65972;SHT31;52726;48.852;9.152;2023-05-07T07:53:50;21.27;57.15
65972;SHT31;52726;48.852;9.152;2023-05-07T07:56:15;21.10;58.01
65972;SHT31;52726;48.852;9.152;2023-05-07T07:58:40;20.89;58.74
65972;SHT31;52726;48.852;9.152;2023-05-07T08:01:07;20.90;60.17
65972;SHT31;52726;48.852;9.152;2023-05-07T08:03:32;21.02;57.72
65972;SHT31;52726;48.852;9.152;2023-05-07T08:05:58;21.28;59.99
65972;SHT31;52726;48.852;9.152;2023-05-07T08:08:23;21.06;57.33
65972;SHT31;52726;48.852;9.152;2023-05-07T08:10:48;21.00;57.96
65972;SHT31;52726;48.852;9.152;2023-05-07T08:13:15;20.71;59.38
65972;SHT31;52726;48.852;9.152;2023-05-07T08:15:41;20.66;59.30
65972;SHT31;52726;48.852;9.152;2023-05-07T08:18:06;20.71;59.11
65972;SHT31;52726;48.852;9.152;2023-05-07T08:20:32;20.86;57.98
65972;SHT31;52726;48.852;9.152;2023-05-07T08:22:58;20.97;59.86
65972;SHT31;52726;48.852;9.152;2023-05-07T08:25:23;20.80;58.21
65972;SHT31;52726;48.852;9.152;2023-05-07T08:27:49;20.77;58.96
65972;SHT31;52726;48.852;9.152;2023-05-07T08:30:14;20.96;60.62
65972;SHT31;52726;48.852;9.152;2023-05-07T08:32:40;21.08;58.78
65972;SHT31;52726;48.852;9.152;2023-05-07T08:35:05;21.42;59.09
65972;SHT31;52726;48.852;9.152;2023-05-07T08:37:31;21.98;57.81
65972;SHT31;52726;48.852;9.152;2023-05-07T08:39:56;22.61;55.57
65972;SHT31;52726;48.852;9.152;2023-05-07T08:42:23;22.91;54.35
65972;SHT31;52726;48.852;9.152;2023-05-07T08:44:50;23.39;54.04
65972;SHT31;52726;48.852;9.152;2023-05-07T08:47:18;23.36;53.23
65972;SHT31;52726;48.852;9.152;2023-05-07T08:49:44;23.82;52.78
65972;SHT31;52726;48.852;9.152;2023-05-07T08:52:11;24.26;53.96
65972;SHT31;52726;48.852;9.152;2023-05-07T08:54:37;24.52;54.17
65972;SHT31;52726;48.852;9.152;2023-05-07T08:57:03;25.11;53.91
65972;SHT31;52726;48.852;9.152;2023-05-07T08:59:29;25.21;51.01
65972;SHT31;52726;48.852;9.152;2023-05-07T09:01:55;25.62;52.70
65972;SHT31;52726;48.852;9.152;2023-05-07T09:04:20;25.92;50.88
65972;SHT31;52726;48.852;9.152;2023-05-07T09:06:46;25.52;48.74
65972;SHT31;52726;48.852;9.152;2023-05-07T09:09:14;25.73;50.49
65972;SHT31;52726;48.852;9.152;2023-05-07T09:11:42;25.14;50.19
65972;SHT31;52726;48.852;9.152;2023-05-07T09:14:07;25.12;49.51
65972;SHT31;52726;48.852;9.152;2023-05-07T09:16:33;24.86;50.95
65972;SHT31;52726;48.852;9.152;2023-05-07T09:18:59;25.46;52.17
65972;SHT31;52726;48.852;9.152;2023-05-07T09:21:25;25.49;51.72
65972;SHT31;52726;48.852;9.152;2023-05-07T09:23:52;25.35;49.62
65972;SHT31;52726;48.852;9.152;2023-05-07T09:26:17;25.34;50.24
65972;SHT31;52726;48.852;9.152;2023-05-07T09:28:43;25.90;51.19
65972;SHT31;52726;48.852;9.152;2023-05-07T09:31:10;25.29;48.83
65972;SHT31;52726;48.852;9.152;2023-05-07T09:33:36;25.10;50.81
65972;SHT31;52726;48.852;9.152;2023-05-07T09:36:05;24.87;50.12
65972;SHT31;52726;48.852;9.152;2023-05-07T09:38:32;24.95;50.90
65972;SHT31;52726;48.852;9.152;2023-05-07T09:41:16;25.08;49.58
65972;SHT31;52726;48.852;9.152;2023-05-07T09:43:41;25.38;49.36
65972;SHT31;52726;48.852;9.152;2023-05-07T09:46:11;25.29;50.44
65972;SHT31;52726;48.852;9.152;2023-05-07T09:48:38;25.53;51.78
65972;SHT31;52726;48.852;9.152;2023-05-07T09:51:56;25.75;49.49
65972;SHT31;52726;48.852;9.152;2023-05-07T09:53:57;25.86;48.50
65972;SHT31;52726;48.852;9.152;2023-05-07T09:56:25;25.39;47.67
65972;SHT31;52726;48.852;9.152;2023-05-07T09:58:52;25.80;50.61
65972;SHT31;52726;48.852;9.152;2023-05-07T10:01:19;26.34;48.04
65972;SHT31;52726;48.852;9.152;2023-05-07T10:03:48;26.01;46.60
65972;SHT31;52726;48.852;9.152;2023-05-07T10:06:15;26.37;48.58
65972;SHT31;52726;48.852;9.152;2023-05-07T10:08:42;26.80;48.19
65972;SHT31;52726;48.852;9.152;2023-05-07T10:11:09;26.99;47.37
65972;SHT31;52726;48.852;9.152;2023-05-07T10:13:35;27.06;46.36
65972;SHT31;52726;48.852;9.152;2023-05-07T10:16:02;26.71;46.93
65972;SHT31;52726;48.852;9.152;2023-05-07T10:18:30;26.41;45.70
65972;SHT31;52726;48.852;9.152;2023-05-07T10:21:02;26.17;46.92
65972;SHT31;52726;48.852;9.152;2023-05-07T10:23:30;26.69;48.23
65972;SHT31;52726;48.852;9.152;2023-05-07T10:25:57;26.96;50.37
65972;SHT31;52726;48.852;9.152;2023-05-07T10:28:24;26.96;45.97
65972;SHT31;52726;48.852;9.152;2023-05-07T10:33:54;26.42;46.31
65972;SHT31;52726;48.852;9.152;2023-05-07T10:36:22;26.07;47.61
65972;SHT31;52726;48.852;9.152;2023-05-07T10:38:47;25.61;47.47
65972;SHT31;52726;48.852;9.152;2023-05-07T10:41:13;25.15;48.64
65972;SHT31;52726;48.852;9.152;2023-05-07T10:43:40;25.19;50.71
65972;SHT31;52726;48.852;9.152;2023-05-07T10:46:11;25.25;51.78
65972;SHT31;52726;48.852;9.152;2023-05-07T10:51:38;24.55;51.05
65972;SHT31;52726;48.852;9.152;2023-05-07T10:56:38;24.69;54.97
65972;SHT31;52726;48.852;9.152;2023-05-07T11:01:50;24.40;51.31
65972;SHT31;52726;48.852;9.152;2023-05-07T11:04:17;24.09;52.69
65972;SHT31;52726;48.852;9.152;2023-05-07T11:10:03;24.06;53.90
65972;SHT31;52726;48.852;9.152;2023-05-07T11:15:11;24.15;50.90
65972;SHT31;52726;48.852;9.152;2023-05-07T11:20:47;23.30;55.40
65972;SHT31;52726;48.852;9.152;2023-05-07T11:25:59;23.02;57.94
65972;SHT31;52726;48.852;9.152;2023-05-07T11:28:28;22.91;56.88
65972;SHT31;52726;48.852;9.152;2023-05-07T11:30:53;23.02;59.45
65972;SHT31;52726;48.852;9.152;2023-05-07T11:33:19;23.05;56.88
65972;SHT31;52726;48.852;9.152;2023-05-07T11:35:48;23.11;56.67
65972;SHT31;52726;48.852;9.152;2023-05-07T11:38:13;23.22;57.09
65972;SHT31;52726;48.852;9.152;2023-05-07T11:40:58;23.03;57.72
65972;SHT31;52726;48.852;9.152;2023-05-07T11:43:28;22.87;56.97
65972;SHT31;52726;48.852;9.152;2023-05-07T11:45:54;22.78;57.62
65972;SHT31;52726;48.852;9.152;2023-05-07T11:48:20;22.76;56.69
65972;SHT31;52726;48.852;9.152;2023-05-07T11:53:26;22.81;57.72
65972;SHT31;52726;48.852;9.152;2023-05-07T11:55:52;22.74;57.01
65972;SHT31;52726;48.852;9.152;2023-05-07T11:58:22;22.67;55.78
65972;SHT31;52726;48.852;9.152;2023-05-07T12:00:54;22.72;57.81
65972;SHT31;52726;48.852;9.152;2023-05-07T12:03:20;22.58;56.94
65972;SHT31;52726;48.852;9.152;2023-05-07T12:05:46;22.60;56.30
65972;SHT31;52726;48.852;9.152;2023-05-07T12:08:18;22.63;56.55
65972;SHT31;52726;48.852;9.152;2023-05-07T12:10:45;22.60;56.78
65972;SHT31;52726;48.852;9.152;2023-05-07T12:13:21;22.63;55.82
65972;SHT31;52726;48.852;9.152;2023-05-07T12:15:53;22.64;55.98
65972;SHT31;52726;48.852;9.152;2023-05-07T12:18:19;22.57;54.96
65972;SHT31;52726;48.852;9.152;2023-05-07T12:20:46;22.54;56.06
65972;SHT31;52726;48.852;9.152;2023-05-07T12:23:12;22.41;55.81
65972;SHT31;52726;48.852;9.152;2023-05-07T12:25:38;22.34;55.90
65972;SHT31;52726;48.852;9.152;2023-05-07T12:28:05;22.33;56.82
65972;SHT31;52726;48.852;9.152;2023-05-07T12:30:38;22.34;57.40
65972;SHT31;52726;48.852;9.152;2023-05-07T12:33:03;22.37;57.10
65972;SHT31;52726;48.852;9.152;2023-05-07T12:35:30;22.40;58.05
65972;SHT31;52726;48.852;9.152;2023-05-07T12:37:56;22.39;60.24
65972;SHT31;52726;48.852;9.152;2023-05-07T12:40:24;22.32;57.24
65972;SHT31;52726;48.852;9.152;2023-05-07T12:42:53;22.26;56.61
65972;SHT31;52726;48.852;9.152;2023-05-07T12:45:20;22.17;60.58
65972;SHT31;52726;48.852;9.152;2023-05-07T12:47:46;21.62;61.68
65972;SHT31;52726;48.852;9.152;2023-05-07T12:50:15;21.33;62.57
65972;SHT31;52726;48.852;9.152;2023-05-07T12:52:41;21.10;64.19
65972;SHT31;52726;48.852;9.152;2023-05-07T12:55:08;20.80;66.24
65972;SHT31;52726;48.852;9.152;2023-05-07T12:57:45;20.62;67.11
65972;SHT31;52726;48.852;9.152;2023-05-07T13:00:13;20.35;66.82
65972;SHT31;52726;48.852;9.152;2023-05-07T13:02:40;20.08;67.76
65972;SHT31;52726;48.852;9.152;2023-05-07T13:05:06;19.61;66.72
65972;SHT31;52726;48.852;9.152;2023-05-07T13:07:32;19.36;67.86
65972;SHT31;52726;48.852;9.152;2023-05-07T13:09:57;19.22;67.76
65972;SHT31;52726;48.852;9.152;2023-05-07T13:12:22;18.95;68.36
65972;SHT31;52726;48.852;9.152;2023-05-07T13:14:48;18.93;68.53
65972;SHT31;52726;48.852;9.152;2023-05-07T13:17:13;18.88;68.07
65972;SHT31;52726;48.852;9.152;2023-05-07T13:19:39;18.76;67.40
65972;SHT31;52726;48.852;9.152;2023-05-07T13:22:05;18.83;66.62
65972;SHT31;52726;48.852;9.152;2023-05-07T13:24:30;18.88;66.26
65972;SHT31;52726;48.852;9.152;2023-05-07T13:26:55;18.98;65.91
65972;SHT31;52726;48.852;9.152;2023-05-07T13:29:21;18.86;67.60
65972;SHT31;52726;48.852;9.152;2023-05-07T13:31:54;18.76;68.94
65972;SHT31;52726;48.852;9.152;2023-05-07T13:34:19;18.50;69.91
65972;SHT31;52726;48.852;9.152;2023-05-07T13:36:44;18.18;72.88
65972;SHT31;52726;48.852;9.152;2023-05-07T13:39:10;18.01;73.85
65972;SHT31;52726;48.852;9.152;2023-05-07T13:41:35;17.84;75.14
65972;SHT31;52726;48.852;9.152;2023-05-07T13:44:01;17.66;74.16
65972;SHT31;52726;48.852;9.152;2023-05-07T13:46:26;17.62;74.18
65972;SHT31;52726;48.852;9.152;2023-05-07T13:48:51;17.60;74.60
65972;SHT31;52726;48.852;9.152;2023-05-07T13:51:17;17.60;75.44
65972;SHT31;52726;48.852;9.152;2023-05-07T13:53:43;17.57;76.94
65972;SHT31;52726;48.852;9.152;2023-05-07T13:56:08;17.62;75.62
65972;SHT31;52726;48.852;9.152;2023-05-07T13:58:34;17.54;74.99
65972;SHT31;52726;48.852;9.152;2023-05-07T14:01:01;17.49;74.59
65972;SHT31;52726;48.852;9.152;2023-05-07T14:03:26;17.50;69.80
65972;SHT31;52726;48.852;9.152;2023-05-07T14:05:52;17.53;71.59
65972;SHT31;52726;48.852;9.152;2023-05-07T14:08:17;17.55;71.17
65972;SHT31;52726;48.852;9.152;2023-05-07T14:10:45;17.55;72.31
65972;SHT31;52726;48.852;9.152;2023-05-07T14:13:11;17.42;72.15
65972;SHT31;52726;48.852;9.152;2023-05-07T14:15:36;17.27;75.50
65972;SHT31;52726;48.852;9.152;2023-05-07T14:18:02;17.19;75.33
65972;SHT31;52726;48.852;9.152;2023-05-07T14:20:28;17.14;74.57
65972;SHT31;52726;48.852;9.152;2023-05-07T14:22:55;17.14;74.66
65972;SHT31;52726;48.852;9.152;2023-05-07T14:25:20;17.09;74.56
65972;SHT31;52726;48.852;9.152;2023-05-07T14:27:46;17.08;74.96
65972;SHT31;52726;48.852;9.152;2023-05-07T14:30:12;16.94;76.31
65972;SHT31;52726;48.852;9.152;2023-05-07T14:32:37;16.88;76.50
65972;SHT31;52726;48.852;9.152;2023-05-07T14:35:03;16.79;76.54
65972;SHT31;52726;48.852;9.152;2023-05-07T14:37:28;16.88;77.10
65972;SHT31;52726;48.852;9.152;2023-05-07T14:39:54;16.82;77.01
65972;SHT31;52726;48.852;9.152;2023-05-07T14:42:19;16.84;76.49
65972;SHT31;52726;48.852;9.152;2023-05-07T14:44:45;16.79;76.93
65972;SHT31;52726;48.852;9.152;2023-05-07T14:47:11;16.79;77.27
65972;SHT31;52726;48.852;9.152;2023-05-07T14:49:37;16.78;77.04
65972;SHT31;52726;48.852;9.152;2023-05-07T14:52:02;16.74;77.18
65972;SHT31;52726;48.852;9.152;2023-05-07T14:54:28;16.78;77.41
65972;SHT31;52726;48.852;9.152;2023-05-07T14:56:53;16.84;77.40
65972;SHT31;52726;48.852;9.152;2023-05-07T14:59:19;16.88;77.40
65972;SHT31;52726;48.852;9.152;2023-05-07T15:01:47;16.88;77.78
65972;SHT31;52726;48.852;9.152;2023-05-07T15:04:12;16.82;77.33
65972;SHT31;52726;48.852;9.152;2023-05-07T15:06:38;16.79;78.84
65972;SHT31;52726;48.852;9.152;2023-05-07T15:09:03;16.75;79.70
65972;SHT31;52726;48.852;9.152;2023-05-07T15:11:29;16.72;81.14
65972;SHT31;52726;48.852;9.152;2023-05-07T15:13:55;16.68;82.94
65972;SHT31;52726;48.852;9.152;2023-05-07T15:16:20;16.65;83.83
65972;SHT31;52726;48.852;9.152;2023-05-07T15:18:46;16.69;84.51
65972;SHT31;52726;48.852;9.152;2023-05-07T15:21:11;16.72;83.62
65972;SHT31;52726;48.852;9.152;2023-05-07T15:23:37;16.77;83.16
65972;SHT31;52726;48.852;9.152;2023-05-07T15:26:03;16.82;82.20
65972;SHT31;52726;48.852;9.152;2023-05-07T15:28:29;16.94;81.69
65972;SHT31;52726;48.852;9.152;2023-05-07T15:30:55;16.96;81.21
65972;SHT31;52726;48.852;9.152;2023-05-07T15:33:20;17.08;80.96
65972;SHT31;52726;48.852;9.152;2023-05-07T15:35:46;17.01;79.76
65972;SHT31;52726;48.852;9.152;2023-05-07T15:38:22;16.95;80.11
65972;SHT31;52726;48.852;9.152;2023-05-07T15:40:47;16.92;79.38
65972;SHT31;52726;48.852;9.152;2023-05-07T15:43:13;17.01;79.18
65972;SHT31;52726;48.852;9.152;2023-05-07T15:45:41;17.05;79.58
65972;SHT31;52726;48.852;9.152;2023-05-07T15:48:12;17.11;80.13
65972;SHT31;52726;48.852;9.152;2023-05-07T15:50:37;16.98;79.17